Terminal Aerodrome Forecast
Issued by NWS

Home | Current Version | Previous Version | Text Only | Print | Product List | Glossary On
Versions: 1 2 3 4 5 6 7 8 9 10 11 12 13 14
333
FTUS43 KMQT 100535
TAFIWD
TAF
KIWD 100535Z 1006/1106 33009KT 2SM -SHSN OVC015
      TEMPO 1006/1010 4SM -SHSN SCT015 OVC025
     FM102000 33007KT 4SM -SHSN BKN022
     FM110000 30004KT P6SM VCSH BKN020
     FM110300 30005KT 4SM -SHSN BKN020
      AMD LTD TO CLD VIS AND WIND=

USA.gov is the U.S. government's official web portal to all federal, state and local government web resources and services.